Terminal Aerodrome Forecast
Issued by NWS

Home | Current Version | Previous Version | Text Only | Print | Product List | Glossary On
Versions: 1 2 3 4 5 6 7 8 9 10 11 12 13 14 15 16 17 18 19 20 21 22 23 24 25 26 27 28
000
FTUS45 KGJT 011734
TAFRIL
TAF
KRIL 011734Z 0118/0218 28004KT P6SM SCT090 SCT150
     FM012000 25008KT P6SM VCTS SCT090CB BKN150
      TEMPO 0122/0202 -TSRA BKN070CB BKN100
     FM020200 14005KT P6SM SCT090 SCT200
     FM020600 VRB03KT P6SM FEW110=

USA.gov is the U.S. government's official web portal to all federal, state and local government web resources and services.